createdAt,value
2023-05-14T00:01:26.153Z,46.44
2023-05-14T00:03:59.198Z,46.44
2023-05-14T00:06:32.204Z,46.57
2023-05-14T00:09:05.409Z,46.71
2023-05-14T00:11:40.524Z,46.91
2023-05-14T00:14:13.464Z,46.99
2023-05-14T00:16:46.436Z,47.06
2023-05-14T00:19:19.381Z,47.01
2023-05-14T00:21:52.309Z,47.01
2023-05-14T00:24:25.178Z,47.02
2023-05-14T00:26:59.506Z,47.04
2023-05-14T00:29:32.329Z,47.12
2023-05-14T00:32:05.585Z,46.94
2023-05-14T00:34:38.375Z,47.02
2023-05-14T00:37:11.345Z,47.03
2023-05-14T00:39:44.224Z,47.09
2023-05-14T00:42:18.552Z,47.29
2023-05-14T00:44:51.427Z,47.21
2023-05-14T00:47:24.575Z,47.21
2023-05-14T00:49:57.452Z,47.25
2023-05-14T00:52:30.388Z,47.20
2023-05-14T00:55:06.711Z,47.60
2023-05-14T00:57:40.995Z,47.65
2023-05-14T01:00:14.789Z,47.50
2023-05-14T01:02:47.820Z,47.63
2023-05-14T01:05:21.231Z,47.81
2023-05-14T01:08:00.232Z,47.65
2023-05-14T01:10:39.952Z,47.61
2023-05-14T01:13:23.863Z,47.65
2023-05-14T01:15:58.735Z,47.65
2023-05-14T01:18:34.346Z,47.82
2023-05-14T01:21:19.171Z,47.77
2023-05-14T01:23:53.351Z,47.95
2023-05-14T01:26:26.210Z,48.10
2023-05-14T01:29:09.620Z,48.20
2023-05-14T01:31:47.064Z,48.08
2023-05-14T01:34:22.542Z,48.32
2023-05-14T01:36:57.967Z,48.54
2023-05-14T01:39:33.606Z,48.73
2023-05-14T01:42:08.286Z,48.89
2023-05-14T01:44:41.748Z,48.88
2023-05-14T01:47:14.635Z,49.03
2023-05-14T01:49:47.501Z,49.31
2023-05-14T01:52:21.344Z,49.38
2023-05-14T01:54:55.629Z,49.40
2023-05-14T01:57:28.509Z,49.58
2023-05-14T02:00:01.387Z,49.55
2023-05-14T02:02:35.613Z,50.08
2023-05-14T02:05:09.886Z,50.17
2023-05-14T02:07:42.778Z,50.26
2023-05-14T02:10:17.042Z,50.47
2023-05-14T02:12:54.394Z,50.88
2023-05-14T02:15:27.229Z,51.07
2023-05-14T02:18:00.177Z,51.21
2023-05-14T02:20:33.561Z,51.40
2023-05-14T02:23:06.406Z,51.43
2023-05-14T02:25:40.632Z,51.56
2023-05-14T02:28:13.776Z,51.85
2023-05-14T02:30:46.916Z,51.94
2023-05-14T02:33:19.838Z,52.02
2023-05-14T02:35:52.837Z,52.19
2023-05-14T02:38:27.796Z,52.43
2023-05-14T02:41:03.983Z,52.68
2023-05-14T02:43:38.140Z,52.79
2023-05-14T02:46:11.046Z,52.80
2023-05-14T02:48:43.986Z,52.94
2023-05-14T02:51:17.395Z,53.10
2023-05-14T02:53:50.325Z,53.39
2023-05-14T02:56:24.638Z,53.43
2023-05-14T02:58:57.637Z,53.38
2023-05-14T03:01:31.024Z,53.51
2023-05-14T03:04:04.358Z,53.46
2023-05-14T03:06:37.199Z,53.56
2023-05-14T03:09:10.074Z,53.75
2023-05-14T03:11:44.518Z,53.67
2023-05-14T03:14:17.429Z,53.66
2023-05-14T03:16:50.387Z,53.66
2023-05-14T03:19:24.209Z,53.84
2023-05-14T03:21:57.058Z,53.83
2023-05-14T03:24:29.905Z,53.78
2023-05-14T03:27:04.377Z,53.98
2023-05-14T03:29:37.224Z,54.08
2023-05-14T03:32:10.238Z,54.01
2023-05-14T03:34:44.815Z,54.00
2023-05-14T03:37:18.179Z,54.01
2023-05-14T03:39:50.972Z,53.95
2023-05-14T03:42:25.281Z,54.06
2023-05-14T03:44:58.078Z,53.95
2023-05-14T03:47:31.033Z,54.04
2023-05-14T03:50:04.337Z,53.86
2023-05-14T03:52:37.251Z,53.80
2023-05-14T03:55:10.949Z,53.48
2023-05-14T03:57:44.936Z,52.58
2023-05-14T04:00:19.463Z,53.05
2023-05-14T04:02:52.385Z,53.25
2023-05-14T04:05:25.268Z,53.04
2023-05-14T04:07:58.273Z,52.90
2023-05-14T04:10:32.209Z,52.81
2023-05-14T04:13:07.408Z,52.83
2023-05-14T04:15:41.819Z,52.88
2023-05-14T04:18:14.970Z,52.54
2023-05-14T04:20:47.898Z,52.50
2023-05-14T04:23:20.931Z,52.30
2023-05-14T04:25:53.808Z,52.17
2023-05-14T04:28:28.027Z,51.69
2023-05-14T04:31:01.291Z,51.36
2023-05-14T04:33:34.148Z,51.13
2023-05-14T04:36:07.396Z,50.94
2023-05-14T04:38:40.179Z,50.67
2023-05-14T04:41:13.097Z,50.71
2023-05-14T04:43:48.319Z,50.23
2023-05-14T04:46:21.198Z,49.89
2023-05-14T04:48:54.070Z,50.05
2023-05-14T04:51:27.695Z,49.78
2023-05-14T04:54:00.389Z,49.27
2023-05-14T04:56:33.225Z,49.17
2023-05-14T04:59:07.460Z,49.11
2023-05-14T05:01:40.404Z,49.25
2023-05-14T05:04:13.508Z,49.00
2023-05-14T05:06:46.361Z,48.79
2023-05-14T05:09:19.410Z,48.96
2023-05-14T05:11:52.340Z,48.31
2023-05-14T05:14:26.547Z,48.12
2023-05-14T05:16:59.448Z,47.80
2023-05-14T05:19:42.461Z,47.32
2023-05-14T05:22:16.427Z,47.47
2023-05-14T05:24:50.096Z,46.76
2023-05-14T05:27:23.047Z,47.10
2023-05-14T05:29:57.570Z,46.77
2023-05-14T05:32:30.711Z,46.08
2023-05-14T05:35:04.163Z,45.39
2023-05-14T05:37:36.959Z,44.38
2023-05-14T05:40:10.631Z,43.89
2023-05-14T05:42:43.610Z,43.70
2023-05-14T05:45:17.894Z,43.61
2023-05-14T05:47:50.906Z,43.35
2023-05-14T05:50:23.925Z,43.46
2023-05-14T05:52:57.030Z,43.38
2023-05-14T05:55:29.891Z,43.27
2023-05-14T05:58:02.856Z,42.43
2023-05-14T06:00:37.109Z,41.58
2023-05-14T06:03:12.924Z,41.74
2023-05-14T06:05:47.053Z,42.02
2023-05-14T06:08:23.001Z,41.35
2023-05-14T06:10:55.813Z,40.89
2023-05-14T06:13:28.688Z,39.88
2023-05-14T06:16:03.101Z,39.46
2023-05-14T06:18:36.104Z,39.33
2023-05-14T06:21:08.956Z,38.49
2023-05-14T06:23:42.064Z,38.54
2023-05-14T06:26:14.892Z,38.07
2023-05-14T06:28:47.804Z,38.15
2023-05-14T06:31:22.193Z,37.44
2023-05-14T06:33:55.212Z,37.79
2023-05-14T06:36:28.106Z,37.58
2023-05-14T06:39:01.084Z,37.41
2023-05-14T06:41:33.985Z,37.24
2023-05-14T06:44:06.891Z,36.80
2023-05-14T06:46:43.373Z,36.41
2023-05-14T06:49:16.307Z,35.88
2023-05-14T06:51:49.232Z,35.97
2023-05-14T06:54:22.111Z,33.73
2023-05-14T06:56:55.156Z,32.94
2023-05-14T06:59:27.985Z,32.04
2023-05-14T07:02:03.205Z,31.65
2023-05-14T07:04:36.528Z,31.05
2023-05-14T07:07:10.583Z,32.18
2023-05-14T07:09:43.240Z,32.12
2023-05-14T07:12:16.194Z,30.80
2023-05-14T07:14:49.058Z,30.59
2023-05-14T07:17:36.589Z,30.64
2023-05-14T07:20:10.547Z,30.15
2023-05-14T07:22:47.030Z,30.36
2023-05-14T07:25:19.980Z,28.88
2023-05-14T07:27:53.029Z,29.71
2023-05-14T07:30:29.851Z,29.99
2023-05-14T07:33:03.985Z,30.07
2023-05-14T07:35:36.727Z,30.35
2023-05-14T07:38:09.501Z,30.80
2023-05-14T07:40:42.269Z,30.71
2023-05-14T07:43:15.203Z,30.46
2023-05-14T07:45:47.866Z,30.41
2023-05-14T07:48:22.121Z,30.41
2023-05-14T07:50:54.834Z,29.97
2023-05-14T07:53:27.572Z,29.95
2023-05-14T07:56:01.032Z,29.76
2023-05-14T07:58:35.167Z,29.56
2023-05-14T08:01:09.230Z,29.23
2023-05-14T08:03:43.547Z,29.34
2023-05-14T08:06:16.339Z,29.56
2023-05-14T08:08:49.016Z,29.23
2023-05-14T08:11:22.409Z,29.57
2023-05-14T08:13:55.138Z,29.09
2023-05-14T08:16:27.968Z,28.97
2023-05-14T08:19:02.037Z,28.97
2023-05-14T08:21:34.773Z,28.92
2023-05-14T08:24:07.645Z,28.85
2023-05-14T08:26:40.524Z,28.53
2023-05-14T08:29:15.470Z,28.53
2023-05-14T08:31:49.431Z,28.00
2023-05-14T08:34:23.593Z,27.54
2023-05-14T08:36:56.237Z,27.27
2023-05-14T08:39:29.098Z,26.58
2023-05-14T08:42:01.807Z,25.75
2023-05-14T08:44:38.341Z,24.84
2023-05-14T08:47:12.586Z,23.61
2023-05-14T08:49:48.156Z,23.42
2023-05-14T08:52:21.392Z,22.73
2023-05-14T08:54:54.775Z,22.05
2023-05-14T08:57:28.841Z,22.01
2023-05-14T09:00:01.921Z,21.05
2023-05-14T09:02:35.132Z,20.79
2023-05-14T09:05:10.333Z,20.56
2023-05-14T09:07:43.195Z,20.11
2023-05-14T09:10:16.628Z,20.15
2023-05-14T09:12:49.213Z,19.76
2023-05-14T09:15:21.879Z,19.60
2023-05-14T09:17:54.701Z,19.36
2023-05-14T09:20:29.301Z,19.29
2023-05-14T09:23:02.397Z,19.26
2023-05-14T09:25:35.065Z,19.46
2023-05-14T09:28:09.662Z,19.01
2023-05-14T09:30:42.647Z,18.80
2023-05-14T09:33:26.569Z,18.46
2023-05-14T09:36:01.650Z,18.54
2023-05-14T09:38:34.722Z,17.88
2023-05-14T09:41:07.432Z,17.46
2023-05-14T09:43:40.062Z,17.88
2023-05-14T09:46:12.683Z,17.45
2023-05-14T09:48:46.545Z,17.39
2023-05-14T09:51:21.997Z,17.58
2023-05-14T09:53:56.242Z,17.56
2023-05-14T09:56:28.952Z,17.31
2023-05-14T09:59:01.522Z,17.39
2023-05-14T10:01:34.610Z,16.75
2023-05-14T10:04:07.896Z,16.71
2023-05-14T10:06:43.890Z,16.04
2023-05-14T10:09:17.757Z,15.89
2023-05-14T10:11:52.828Z,15.94
2023-05-14T10:14:27.974Z,16.23
2023-05-14T10:17:02.035Z,16.26
2023-05-14T10:19:35.267Z,16.25
2023-05-14T10:22:12.461Z,16.18
2023-05-14T10:24:46.001Z,16.56
2023-05-14T10:27:19.060Z,16.62
2023-05-14T10:29:53.868Z,16.94
2023-05-14T10:32:27.127Z,17.39
2023-05-14T10:35:02.710Z,18.25
2023-05-14T10:37:36.756Z,18.83
2023-05-14T10:40:10.087Z,19.27
2023-05-14T10:42:43.770Z,19.41
2023-05-14T10:45:16.901Z,19.49
2023-05-14T10:47:49.905Z,19.46
2023-05-14T10:50:23.867Z,19.87
2023-05-14T10:53:06.012Z,19.96
2023-05-14T10:55:39.458Z,19.98
2023-05-14T10:58:12.419Z,20.23
2023-05-14T11:00:51.469Z,20.32
2023-05-14T11:03:24.190Z,20.08
2023-05-14T11:05:56.935Z,20.04
2023-05-14T11:08:32.049Z,20.15
2023-05-14T11:11:05.369Z,19.95
2023-05-14T11:13:38.469Z,20.03
2023-05-14T11:16:22.741Z,20.01
2023-05-14T11:19:02.889Z,20.03
2023-05-14T11:21:36.028Z,20.06
2023-05-14T11:24:10.955Z,19.75
2023-05-14T11:26:43.806Z,19.91
2023-05-14T11:29:16.463Z,20.07
2023-05-14T11:31:49.404Z,20.02
2023-05-14T11:34:22.527Z,20.02
2023-05-14T11:36:55.233Z,20.14
2023-05-14T11:39:29.302Z,20.15
2023-05-14T11:42:04.189Z,20.11
2023-05-14T11:44:36.912Z,20.18
2023-05-14T11:47:09.630Z,19.97
2023-05-14T11:49:42.648Z,20.26
2023-05-14T11:52:15.876Z,20.25
2023-05-14T11:54:51.039Z,20.23
2023-05-14T11:57:23.955Z,20.29
2023-05-14T11:59:58.058Z,20.61
2023-05-14T12:02:31.064Z,20.25
2023-05-14T12:05:03.793Z,20.60
2023-05-14T12:07:36.981Z,20.25
2023-05-14T12:10:13.300Z,20.63
2023-05-14T12:12:46.648Z,20.58
2023-05-14T12:15:20.565Z,20.30
2023-05-14T12:17:53.504Z,20.48
2023-05-14T12:20:26.415Z,20.70
2023-05-14T12:22:59.393Z,20.76
2023-05-14T12:25:33.423Z,20.43
2023-05-14T12:28:14.726Z,20.58
2023-05-14T12:30:47.821Z,20.81
2023-05-14T12:33:23.007Z,20.87
2023-05-14T12:35:58.902Z,20.66
2023-05-14T12:38:33.651Z,20.63
2023-05-14T12:41:07.669Z,20.67
2023-05-14T12:43:40.833Z,20.77
2023-05-14T12:46:13.563Z,21.03
2023-05-14T12:48:46.471Z,21.07
2023-05-14T12:51:19.181Z,20.92
2023-05-14T12:53:54.115Z,20.86
2023-05-14T12:56:28.557Z,20.80
2023-05-14T12:59:01.251Z,20.96
2023-05-14T13:01:34.141Z,20.84
2023-05-14T13:04:07.031Z,21.09
2023-05-14T13:06:42.841Z,21.26
2023-05-14T13:09:15.476Z,20.99
2023-05-14T13:11:50.797Z,21.00
2023-05-14T13:14:23.491Z,21.12
2023-05-14T13:16:56.182Z,21.17
2023-05-14T13:19:28.936Z,21.21
2023-05-14T13:22:01.600Z,21.47
2023-05-14T13:24:34.895Z,21.45
2023-05-14T13:27:08.873Z,21.60
2023-05-14T13:29:41.792Z,21.61
2023-05-14T13:32:14.474Z,21.29
2023-05-14T13:34:47.294Z,21.28
2023-05-14T13:37:20.046Z,21.73
2023-05-14T13:42:39.885Z,21.75
2023-05-14T13:45:13.296Z,21.56
2023-05-14T13:47:46.360Z,21.70
2023-05-14T13:50:19.177Z,21.55
2023-05-14T13:52:52.212Z,22.12
2023-05-14T13:55:25.170Z,21.91
2023-05-14T13:58:00.152Z,22.13
2023-05-14T14:00:32.863Z,22.35
2023-05-14T14:03:05.696Z,22.26
2023-05-14T14:05:38.646Z,22.27
2023-05-14T14:08:22.744Z,22.59
2023-05-14T14:10:56.401Z,22.56
2023-05-14T14:13:30.535Z,22.62
2023-05-14T14:16:04.511Z,22.66
2023-05-14T14:18:37.240Z,22.60
2023-05-14T14:21:10.181Z,22.48
2023-05-14T14:23:42.877Z,22.71
2023-05-14T14:26:15.984Z,22.66
2023-05-14T14:28:50.175Z,22.56
2023-05-14T14:31:22.984Z,22.77
2023-05-14T14:33:55.633Z,22.47
2023-05-14T14:36:29.042Z,22.50
2023-05-14T14:39:01.764Z,22.79
2023-05-14T14:41:34.460Z,22.76
2023-05-14T14:44:08.497Z,22.69
2023-05-14T14:46:42.852Z,22.72
2023-05-14T14:49:15.482Z,22.81
2023-05-14T14:51:48.138Z,22.97
2023-05-14T14:54:20.826Z,22.81
2023-05-14T14:56:53.472Z,23.10
2023-05-14T14:59:27.461Z,23.12
2023-05-14T15:02:00.138Z,22.85
2023-05-14T15:04:34.778Z,23.19
2023-05-14T15:07:07.536Z,23.18
2023-05-14T15:09:40.226Z,23.32
2023-05-14T15:12:14.283Z,23.12
2023-05-14T15:14:48.288Z,23.11
2023-05-14T15:17:20.941Z,23.40
2023-05-14T15:19:53.625Z,23.45
2023-05-14T15:22:26.333Z,23.43
2023-05-14T15:24:58.967Z,23.27
2023-05-14T15:27:31.966Z,23.43
2023-05-14T15:30:07.357Z,23.54
2023-05-14T15:32:40.276Z,23.47
2023-05-14T15:35:13.055Z,23.65
2023-05-14T15:37:45.999Z,23.62
2023-05-14T15:40:20.001Z,23.58
2023-05-14T15:42:52.687Z,23.56
2023-05-14T15:45:26.822Z,23.92
2023-05-14T15:47:59.525Z,23.89
2023-05-14T15:50:32.263Z,23.95
2023-05-14T15:53:04.916Z,23.73
2023-05-14T15:55:37.571Z,23.89
2023-05-14T15:58:10.238Z,23.91
2023-05-14T16:00:44.223Z,23.92
2023-05-14T16:03:19.769Z,23.72
2023-05-14T16:05:52.486Z,24.22
2023-05-14T16:08:25.164Z,24.29
2023-05-14T16:10:57.853Z,24.20
2023-05-14T16:13:30.643Z,24.00
2023-05-14T16:16:04.863Z,24.32
2023-05-14T16:18:38.902Z,24.19
2023-05-14T16:21:11.551Z,24.29
2023-05-14T16:23:44.225Z,24.12
2023-05-14T16:26:17.097Z,24.29
2023-05-14T16:28:49.832Z,24.32
2023-05-14T16:31:23.856Z,24.09
2023-05-14T16:33:56.476Z,24.38
2023-05-14T16:36:29.123Z,24.19
2023-05-14T16:41:37.946Z,24.45
2023-05-14T16:44:10.699Z,24.26
2023-05-14T16:46:44.804Z,24.37
2023-05-14T16:49:17.585Z,24.40
2023-05-14T16:51:50.249Z,24.36
2023-05-14T16:54:23.022Z,24.56
2023-05-14T16:56:55.702Z,24.37
2023-05-14T16:59:29.621Z,24.65
2023-05-14T17:02:04.083Z,24.73
2023-05-14T17:04:38.812Z,24.47
2023-05-14T17:07:11.857Z,24.48
2023-05-14T17:09:44.673Z,24.53
2023-05-14T17:12:17.300Z,24.76
2023-05-14T17:14:50.013Z,24.56
2023-05-14T17:17:24.098Z,24.70
2023-05-14T17:19:56.997Z,24.92
2023-05-14T17:22:29.735Z,24.84
2023-05-14T17:25:02.514Z,24.88
2023-05-14T17:27:36.148Z,24.92
2023-05-14T17:30:09.316Z,25.12
2023-05-14T17:32:43.464Z,25.02
2023-05-14T17:35:16.459Z,25.14
2023-05-14T17:37:49.471Z,25.37
2023-05-14T17:40:22.166Z,25.55
2023-05-14T17:42:54.817Z,25.26
2023-05-14T17:45:28.559Z,25.41
2023-05-14T17:48:04.895Z,25.55
2023-05-14T17:50:39.195Z,25.50
2023-05-14T17:53:11.911Z,25.58
2023-05-14T17:55:44.716Z,25.67
2023-05-14T17:58:17.426Z,25.42
2023-05-14T18:00:50.175Z,25.57
2023-05-14T18:03:24.393Z,25.52
2023-05-14T18:05:57.314Z,25.64
2023-05-14T18:08:30.073Z,25.47
2023-05-14T18:11:02.777Z,25.80
2023-05-14T18:13:35.453Z,25.70
2023-05-14T18:16:08.707Z,25.52
2023-05-14T18:18:43.065Z,25.80
2023-05-14T18:21:16.018Z,25.65
2023-05-14T18:23:48.690Z,25.66
2023-05-14T18:26:22.100Z,25.78
2023-05-14T18:28:54.753Z,25.88
2023-05-14T18:31:28.532Z,25.80
2023-05-14T18:34:02.653Z,25.91
2023-05-14T18:36:35.480Z,25.97
2023-05-14T18:39:08.086Z,25.90
2023-05-14T18:41:40.785Z,26.02
2023-05-14T18:44:13.532Z,25.92
2023-05-14T18:46:46.331Z,25.94
2023-05-14T18:49:20.502Z,26.15
2023-05-14T18:51:53.267Z,25.84
2023-05-14T18:54:25.948Z,25.95
2023-05-14T18:56:58.705Z,25.96
2023-05-14T18:59:31.344Z,25.92
2023-05-14T19:02:04.307Z,26.08
2023-05-14T19:04:50.736Z,26.05
2023-05-14T19:07:24.867Z,26.18
2023-05-14T19:09:57.941Z,25.93
2023-05-14T19:12:31.635Z,26.00
2023-05-14T19:15:04.520Z,26.21
2023-05-14T19:17:37.518Z,26.23
2023-05-14T19:20:12.503Z,26.23
2023-05-14T19:22:45.182Z,26.14
2023-05-14T19:25:17.902Z,26.38
2023-05-14T19:27:53.578Z,26.33
2023-05-14T19:30:26.284Z,26.16
2023-05-14T19:32:59.134Z,26.28
2023-05-14T19:35:33.188Z,26.39
2023-05-14T19:38:05.892Z,26.36
2023-05-14T19:40:38.549Z,26.22
2023-05-14T19:43:11.960Z,26.62
2023-05-14T19:45:45.836Z,26.55
2023-05-14T19:48:19.243Z,26.36
2023-05-14T19:50:53.229Z,26.44
2023-05-14T19:53:29.720Z,26.39
2023-05-14T19:56:03.513Z,26.40
2023-05-14T19:58:36.238Z,26.35
2023-05-14T20:01:09.373Z,26.52
2023-05-14T20:03:42.338Z,26.50
2023-05-14T20:06:17.585Z,26.62
2023-05-14T20:08:51.560Z,26.32
2023-05-14T20:11:24.359Z,26.52
2023-05-14T20:13:57.102Z,26.46
2023-05-14T20:16:29.879Z,26.53
2023-05-14T20:19:02.751Z,26.70
2023-05-14T20:21:37.119Z,26.51
2023-05-14T20:24:09.848Z,26.53
2023-05-14T20:26:42.691Z,26.78
2023-05-14T20:29:15.459Z,26.91
2023-05-14T20:31:48.138Z,26.84
2023-05-14T20:34:20.830Z,26.72
2023-05-14T20:36:54.941Z,26.81
2023-05-14T20:39:27.602Z,26.67
2023-05-14T20:42:00.226Z,26.76
2023-05-14T20:44:32.832Z,26.67
2023-05-14T20:47:05.773Z,26.94
2023-05-14T20:49:38.399Z,26.84
2023-05-14T20:52:12.561Z,27.06
2023-05-14T20:54:45.389Z,26.93
2023-05-14T20:57:18.058Z,26.92
2023-05-14T20:59:50.669Z,26.81
2023-05-14T21:02:23.382Z,26.92
2023-05-14T21:04:56.284Z,27.06
2023-05-14T21:07:30.434Z,27.29
2023-05-14T21:10:03.233Z,26.98
2023-05-14T21:12:35.870Z,27.11
2023-05-14T21:15:09.250Z,27.17
2023-05-14T21:17:41.981Z,27.03
2023-05-14T21:20:15.653Z,27.06
2023-05-14T21:22:49.773Z,27.33
2023-05-14T21:25:22.788Z,27.15
2023-05-14T21:27:55.696Z,27.37
2023-05-14T21:30:28.326Z,27.34
2023-05-14T21:33:01.100Z,27.24
2023-05-14T21:35:33.817Z,27.19
2023-05-14T21:38:08.896Z,27.31
2023-05-14T21:40:41.516Z,27.21
2023-05-14T21:43:14.200Z,27.32
2023-05-14T21:45:47.153Z,27.41
2023-05-14T21:48:20.905Z,27.23
2023-05-14T21:50:53.554Z,27.56
2023-05-14T21:53:27.615Z,27.30
2023-05-14T21:56:00.224Z,27.53
2023-05-14T21:58:33.226Z,27.35
2023-05-14T22:01:05.954Z,27.44
2023-05-14T22:03:38.922Z,27.57
2023-05-14T22:06:11.873Z,27.64
2023-05-14T22:08:45.946Z,27.65
2023-05-14T22:11:18.650Z,27.61
2023-05-14T22:13:51.339Z,27.56
2023-05-14T22:16:26.366Z,27.53
2023-05-14T22:18:59.095Z,27.53
2023-05-14T22:21:31.714Z,27.68
2023-05-14T22:24:06.017Z,27.70
2023-05-14T22:26:38.726Z,27.71
2023-05-14T22:29:11.382Z,27.71
2023-05-14T22:31:44.194Z,27.61
2023-05-14T22:34:17.154Z,27.58
2023-05-14T22:36:49.840Z,27.59
2023-05-14T22:39:23.827Z,27.74
2023-05-14T22:41:59.525Z,27.79
2023-05-14T22:44:32.194Z,27.82
2023-05-14T22:47:05.405Z,27.56
2023-05-14T22:49:38.023Z,27.63
2023-05-14T22:52:10.917Z,27.88
2023-05-14T22:54:44.875Z,27.66
2023-05-14T22:57:17.636Z,27.81
2023-05-14T22:59:50.487Z,27.83
2023-05-14T23:02:23.184Z,27.88
2023-05-14T23:04:56.064Z,27.81
2023-05-14T23:07:28.790Z,27.73
2023-05-14T23:10:02.951Z,27.84
2023-05-14T23:12:35.655Z,27.73
2023-05-14T23:15:08.622Z,27.86
2023-05-14T23:17:41.411Z,27.82
2023-05-14T23:20:14.160Z,27.85
2023-05-14T23:22:46.761Z,27.94
2023-05-14T23:25:20.827Z,27.78
2023-05-14T23:27:53.532Z,27.83
2023-05-14T23:30:26.170Z,27.81
2023-05-14T23:32:58.806Z,28.12
2023-05-14T23:35:31.529Z,27.86
2023-05-14T23:38:04.834Z,27.77
2023-05-14T23:40:38.823Z,28.09
2023-05-14T23:43:11.470Z,27.98
2023-05-14T23:45:44.125Z,28.21
2023-05-14T23:48:16.839Z,28.12
2023-05-14T23:50:49.510Z,27.93
2023-05-14T23:53:22.098Z,28.13
2023-05-14T23:55:56.114Z,27.88
2023-05-14T23:58:30.078Z,28.08
